Nyk Deneb — 3EOF8 — position and weather

sailwx.info

Track history (hours):
 
Tides and Currents Weather Stations Pressure Air Temp Water Temp Dewpoint Dewpoint Depression Visibility Wind Speed Wind Dir Waves Ship Positions

Nyk Deneb

Last reported at 2014-Aug-18 04:24 UTC. Time now 2014-Aug-22 02:04 UTC.
Position N 30°38' E 123°09'.

Length 294 m; draft 10.5 m.

Type: Ship (hazmat cat A). MMSI: 355717000.

Date/timePositionNaut miles runAvg speedWind from/ knotsBaromVisibWave heightAir tempDewpointWater temp
2014-Aug-18 04:24N 30°38' E 123°09'1517.3
2014-Aug-18 03:33N 30°34' E 122°53'1918.8
2014-Aug-18 02:33N 30°32' E 122°31'1515.3
2014-Aug-18 01:33N 30°33' E 122°13'10 9.9
2014-Aug-18 00:33N 30°38' E 122°03'0 0.0
2014-Aug-17 18:33N 30°38' E 122°03'0 0.1
2014-Aug-17 17:33N 30°38' E 122°03'0 0.0
2014-Aug-17 16:33N 30°38' E 122°03'0 0.0
2014-Aug-17 15:33N 30°38' E 122°03'0 0.0
2014-Aug-17 14:33N 30°38' E 122°03'0 0.0
2014-Aug-17 13:33N 30°38' E 122°03'0 0.0
2014-Aug-17 12:33N 30°38' E 122°03'0 0.0
2014-Aug-17 11:33N 30°38' E 122°03'0 0.0
2014-Aug-17 10:33N 30°38' E 122°03'0 0.4
2014-Aug-17 09:33N 30°37' E 122°03'4 3.8
2014-Aug-17 08:33N 30°35' E 122°07'8 8.4
2014-Aug-17 07:34N 30°33' E 122°16'10 9.8
2014-Aug-17 06:33N 30°32' E 122°27'7 6.8
2014-Aug-17 05:33N 30°29' E 122°35'0 0.0
2014-Aug-17 04:27N 30°29' E 122°35'0 0.1
2014-Aug-17 03:33N 30°29' E 122°35'0 0.1
2014-Aug-17 02:33N 30°29' E 122°35'0 0.1
2014-Aug-17 01:33N 30°29' E 122°35'0 0.1
2014-Aug-17 00:33N 30°29' E 122°35'0 0.0
2014-Aug-16 23:09N 30°29' E 122°35'0 0.0
2014-Aug-16 22:27N 30°29' E 122°35'0 0.0
2014-Aug-16 21:33N 30°29' E 122°35'0 0.2
2014-Aug-16 20:15N 30°29' E 122°35'0 0.1
2014-Aug-16 19:09N 30°29' E 122°35'0 0.1
2014-Aug-16 18:33N 30°29' E 122°35'0 0.0
2014-Aug-16 17:33N 30°29' E 122°35'0 0.1
2014-Aug-16 16:33N 30°29' E 122°35'0 0.1
2014-Aug-16 15:33N 30°29' E 122°35'0 0.2
2014-Aug-16 14:33N 30°29' E 122°35'0 0.1
2014-Aug-16 13:27N 30°29' E 122°35'0 0.0
2014-Aug-16 12:27N 30°29' E 122°35'0 0.0
2014-Aug-16 11:33N 30°29' E 122°35'0 0.1
2014-Aug-16 10:21N 30°29' E 122°35'0 0.2
2014-Aug-16 09:21N 30°29' E 122°35'0 0.3
2014-Aug-16 08:33N 30°29' E 122°35'0 0.1
2014-Aug-16 07:30N 30°29' E 122°34'0 0.0
2014-Aug-16 06:27N 30°29' E 122°34'0 0.0
2014-Aug-16 05:33N 30°29' E 122°34'0 0.1
2014-Aug-16 04:27N 30°29' E 122°35'0 0.1
2014-Aug-16 03:27N 30°29' E 122°35'0 0.1
2014-Aug-16 02:27N 30°29' E 122°35'0 0.1
2014-Aug-16 01:33N 30°29' E 122°35'0 0.1
2014-Aug-16 00:27N 30°29' E 122°35'0 0.0
2014-Aug-15 23:27N 30°29' E 122°35'0 0.0
2014-Aug-15 22:33N 30°29' E 122°35'0 0.0
2014-Aug-15 21:27N 30°29' E 122°35'0 0.3
2014-Aug-15 20:33N 30°29' E 122°35'0 0.1
2014-Aug-15 19:33N 30°29' E 122°34'0 0.0
2014-Aug-15 18:33N 30°29' E 122°34'0 0.0
2014-Aug-15 17:33N 30°29' E 122°34'0 0.0
2014-Aug-15 16:33N 30°29' E 122°34'0 0.0
2014-Aug-15 15:33N 30°29' E 122°34'4 3.6
2014-Aug-15 14:33N 30°29' E 122°39'1312.7
2014-Aug-15 13:33N 30°23' E 122°52'1312.5
2014-Aug-15 12:33N 30°15' E 123°03'1212.1
2014-Aug-15 11:33N 30°03' E 123°02'1211.8
2014-Aug-15 10:32N 29°53' E 122°55'1312.9
2014-Aug-15 09:33N 29°46' E 122°43'1312.7
2014-Aug-15 08:33N 29°41' E 122°29'1413.9
2014-Aug-15 07:34N 29°47' E 122°15'10 9.9
2014-Aug-15 06:33N 29°47' E 122°04'4 3.6
2014-Aug-15 05:32N 29°46' E 122°00'0 0.0
2014-Aug-15 04:26N 29°46' E 122°00'0 0.0
2014-Aug-15 03:31N 29°46' E 122°00'0 0.0
2014-Aug-15 02:31N 29°46' E 122°00'0 0.0
2014-Aug-15 01:31N 29°46' E 122°00'0 0.0
2014-Aug-15 00:31N 29°46' E 122°00'0 0.0
2014-Aug-14 23:25N 29°46' E 122°00'0 0.0
2014-Aug-14 22:19N 29°46' E 122°00'0 0.0
2014-Aug-14 21:25N 29°46' E 122°00'0 0.0
2014-Aug-14 20:25N 29°46' E 122°00'0 0.0
2014-Aug-14 19:32N 29°46' E 122°00'1 1.3
2014-Aug-14 18:34N 29°47' E 122°01'7 7.0
2014-Aug-14 17:33N 29°50' E 122°09'10 9.6
2014-Aug-14 16:33N 29°45' E 122°19'10 9.7
2014-Aug-14 15:33N 29°43' E 122°29'1211.8
2014-Aug-14 14:33N 29°42' E 122°43'1513.7
2014-Aug-14 13:26N 29°45' E 123°00'85 7.0
2014-Aug-14 01:15N 31°09' E 123°21'31912.9
2014-Aug-13 00:33N 35°57' E 120°38'1515.0
2014-Aug-12 23:33N 36°01' E 120°20'6 6.4
2014-Aug-12 22:33N 36°00' E 120°12'0 0.0
2014-Aug-12 11:33N 36°00' E 120°13'7 7.2
2014-Aug-12 10:33N 36°01' E 120°22'1313.5
2014-Aug-12 09:33N 35°58' E 120°38'1414.3
2014-Aug-12 08:34N 35°56' E 120°55'2913.1
2014-Aug-12 06:20N 35°50' E 121°30'6 7.2
2014-Aug-12 05:32N 35°47' E 121°36'  
Track history (hours):
 
Tides and Currents Weather Stations Pressure Air Temp Water Temp Dewpoint Dewpoint Depression Visibility Wind Speed Wind Dir Waves Ship Positions

Nyk Deneb

Last reported at 2014-Aug-18 04:24 UTC. Time now 2014-Aug-22 02:04 UTC.
Position N 30°38' E 123°09'.

Length 294 m; draft 10.5 m.

Type: Ship (hazmat cat A). MMSI: 355717000.

Date/timePositionNaut miles runAvg speedWind from/ knotsBaromVisibWave heightAir tempDewpointWater temp
2014-Aug-18 04:24N 30°38' E 123°09'1517.3
2014-Aug-18 03:33N 30°34' E 122°53'1918.8
2014-Aug-18 02:33N 30°32' E 122°31'1515.3
2014-Aug-18 01:33N 30°33' E 122°13'10 9.9
2014-Aug-18 00:33N 30°38' E 122°03'0 0.0
2014-Aug-17 18:33N 30°38' E 122°03'0 0.1
2014-Aug-17 17:33N 30°38' E 122°03'0 0.0
2014-Aug-17 16:33N 30°38' E 122°03'0 0.0
2014-Aug-17 15:33N 30°38' E 122°03'0 0.0
2014-Aug-17 14:33N 30°38' E 122°03'0 0.0
2014-Aug-17 13:33N 30°38' E 122°03'0 0.0
2014-Aug-17 12:33N 30°38' E 122°03'0 0.0
2014-Aug-17 11:33N 30°38' E 122°03'0 0.0
2014-Aug-17 10:33N 30°38' E 122°03'0 0.4
2014-Aug-17 09:33N 30°37' E 122°03'4 3.8
2014-Aug-17 08:33N 30°35' E 122°07'8 8.4
2014-Aug-17 07:34N 30°33' E 122°16'10 9.8
2014-Aug-17 06:33N 30°32' E 122°27'7 6.8
2014-Aug-17 05:33N 30°29' E 122°35'0 0.0
2014-Aug-17 04:27N 30°29' E 122°35'0 0.1
2014-Aug-17 03:33N 30°29' E 122°35'0 0.1
2014-Aug-17 02:33N 30°29' E 122°35'0 0.1
2014-Aug-17 01:33N 30°29' E 122°35'0 0.1
2014-Aug-17 00:33N 30°29' E 122°35'0 0.0
2014-Aug-16 23:09N 30°29' E 122°35'0 0.0
2014-Aug-16 22:27N 30°29' E 122°35'0 0.0
2014-Aug-16 21:33N 30°29' E 122°35'0 0.2
2014-Aug-16 20:15N 30°29' E 122°35'0 0.1
2014-Aug-16 19:09N 30°29' E 122°35'0 0.1
2014-Aug-16 18:33N 30°29' E 122°35'0 0.0
2014-Aug-16 17:33N 30°29' E 122°35'0 0.1
2014-Aug-16 16:33N 30°29' E 122°35'0 0.1
2014-Aug-16 15:33N 30°29' E 122°35'0 0.2
2014-Aug-16 14:33N 30°29' E 122°35'0 0.1
2014-Aug-16 13:27N 30°29' E 122°35'0 0.0
2014-Aug-16 12:27N 30°29' E 122°35'0 0.0
2014-Aug-16 11:33N 30°29' E 122°35'0 0.1
2014-Aug-16 10:21N 30°29' E 122°35'0 0.2
2014-Aug-16 09:21N 30°29' E 122°35'0 0.3
2014-Aug-16 08:33N 30°29' E 122°35'0 0.1
2014-Aug-16 07:30N 30°29' E 122°34'0 0.0
2014-Aug-16 06:27N 30°29' E 122°34'0 0.0
2014-Aug-16 05:33N 30°29' E 122°34'0 0.1
2014-Aug-16 04:27N 30°29' E 122°35'0 0.1
2014-Aug-16 03:27N 30°29' E 122°35'0 0.1
2014-Aug-16 02:27N 30°29' E 122°35'0 0.1
2014-Aug-16 01:33N 30°29' E 122°35'0 0.1
2014-Aug-16 00:27N 30°29' E 122°35'0 0.0
2014-Aug-15 23:27N 30°29' E 122°35'0 0.0
2014-Aug-15 22:33N 30°29' E 122°35'0 0.0
2014-Aug-15 21:27N 30°29' E 122°35'0 0.3
2014-Aug-15 20:33N 30°29' E 122°35'0 0.1
2014-Aug-15 19:33N 30°29' E 122°34'0 0.0
2014-Aug-15 18:33N 30°29' E 122°34'0 0.0
2014-Aug-15 17:33N 30°29' E 122°34'0 0.0
2014-Aug-15 16:33N 30°29' E 122°34'0 0.0
2014-Aug-15 15:33N 30°29' E 122°34'4 3.6
2014-Aug-15 14:33N 30°29' E 122°39'1312.7
2014-Aug-15 13:33N 30°23' E 122°52'1312.5
2014-Aug-15 12:33N 30°15' E 123°03'1212.1
2014-Aug-15 11:33N 30°03' E 123°02'1211.8
2014-Aug-15 10:32N 29°53' E 122°55'1312.9
2014-Aug-15 09:33N 29°46' E 122°43'1312.7
2014-Aug-15 08:33N 29°41' E 122°29'1413.9
2014-Aug-15 07:34N 29°47' E 122°15'10 9.9
2014-Aug-15 06:33N 29°47' E 122°04'4 3.6
2014-Aug-15 05:32N 29°46' E 122°00'0 0.0
2014-Aug-15 04:26N 29°46' E 122°00'0 0.0
2014-Aug-15 03:31N 29°46' E 122°00'0 0.0
2014-Aug-15 02:31N 29°46' E 122°00'0 0.0
2014-Aug-15 01:31N 29°46' E 122°00'0 0.0
2014-Aug-15 00:31N 29°46' E 122°00'0 0.0
2014-Aug-14 23:25N 29°46' E 122°00'0 0.0
2014-Aug-14 22:19N 29°46' E 122°00'0 0.0
2014-Aug-14 21:25N 29°46' E 122°00'0 0.0
2014-Aug-14 20:25N 29°46' E 122°00'0 0.0
2014-Aug-14 19:32N 29°46' E 122°00'1 1.3
2014-Aug-14 18:34N 29°47' E 122°01'7 7.0
2014-Aug-14 17:33N 29°50' E 122°09'10 9.6
2014-Aug-14 16:33N 29°45' E 122°19'10 9.7
2014-Aug-14 15:33N 29°43' E 122°29'1211.8
2014-Aug-14 14:33N 29°42' E 122°43'1513.7
2014-Aug-14 13:26N 29°45' E 123°00'85 7.0
2014-Aug-14 01:15N 31°09' E 123°21'31912.9
2014-Aug-13 00:33N 35°57' E 120°38'1515.0
2014-Aug-12 23:33N 36°01' E 120°20'6 6.4
2014-Aug-12 22:33N 36°00' E 120°12'0 0.0
2014-Aug-12 11:33N 36°00' E 120°13'7 7.2
2014-Aug-12 10:33N 36°01' E 120°22'1313.5
2014-Aug-12 09:33N 35°58' E 120°38'1414.3
2014-Aug-12 08:34N 35°56' E 120°55'2913.1
2014-Aug-12 06:20N 35°50' E 121°30'6 7.2
2014-Aug-12 05:32N 35°47' E 121°36'  

Dump ship's entire track history